createdAt,value
2018-02-17T00:01:18.178Z,83.28
2018-02-17T00:03:46.375Z,83.27
2018-02-17T00:06:14.624Z,83.87
2018-02-17T00:08:42.739Z,83.57
2018-02-17T00:11:10.850Z,83.17
2018-02-17T00:13:38.977Z,83.85
2018-02-17T00:16:07.080Z,83.92
2018-02-17T00:18:35.213Z,84.15
2018-02-17T00:21:03.335Z,83.19
2018-02-17T00:23:31.473Z,83.20
2018-02-17T00:25:59.593Z,83.23
2018-02-17T00:28:27.706Z,83.36
2018-02-17T00:30:55.820Z,83.20
2018-02-17T00:33:23.942Z,83.73
2018-02-17T00:35:52.053Z,83.78
2018-02-17T00:38:20.356Z,84.03
2018-02-17T00:40:48.452Z,83.85
2018-02-17T00:43:16.557Z,83.88
2018-02-17T00:45:44.686Z,84.31
2018-02-17T00:48:12.787Z,84.24
2018-02-17T00:50:40.892Z,83.93
2018-02-17T00:53:09.008Z,84.20
2018-02-17T00:55:37.148Z,84.77
2018-02-17T00:58:05.275Z,85.00
2018-02-17T01:00:33.375Z,84.92
2018-02-17T01:03:01.494Z,84.72
2018-02-17T01:05:29.614Z,84.71
2018-02-17T01:07:57.719Z,85.09
2018-02-17T01:10:25.833Z,85.25
2018-02-17T01:12:53.936Z,85.17
2018-02-17T01:15:22.070Z,85.15
2018-02-17T01:17:50.185Z,84.85
2018-02-17T01:20:18.279Z,85.10
2018-02-17T01:22:46.406Z,85.36
2018-02-17T01:25:14.500Z,85.52
2018-02-17T01:27:42.614Z,85.64
2018-02-17T01:30:10.734Z,85.25
2018-02-17T01:32:38.865Z,85.05
2018-02-17T01:35:06.958Z,85.26
2018-02-17T01:37:35.089Z,85.26
2018-02-17T01:40:03.203Z,85.24
2018-02-17T01:42:31.307Z,85.77
2018-02-17T01:44:59.439Z,85.33
2018-02-17T01:47:27.553Z,85.07
2018-02-17T01:49:55.669Z,84.90
2018-02-17T01:52:23.796Z,85.00
2018-02-17T01:54:51.895Z,85.18
2018-02-17T01:57:20.004Z,85.06
2018-02-17T01:59:48.122Z,85.06
2018-02-17T02:02:16.231Z,85.31
2018-02-17T02:04:44.357Z,85.03
2018-02-17T02:07:12.447Z,85.03
2018-02-17T02:09:40.559Z,85.12
2018-02-17T02:12:08.666Z,85.20
2018-02-17T02:14:36.787Z,85.34
2018-02-17T02:17:04.888Z,85.78
2018-02-17T02:19:33.028Z,85.36
2018-02-17T02:22:01.135Z,85.03
2018-02-17T02:24:29.249Z,84.99
2018-02-17T02:26:57.372Z,85.24
2018-02-17T02:29:25.476Z,85.32
2018-02-17T02:31:53.584Z,85.04
2018-02-17T02:34:21.688Z,84.64
2018-02-17T02:36:49.801Z,85.05
2018-02-17T02:39:17.923Z,85.17
2018-02-17T02:41:46.037Z,85.77
2018-02-17T02:44:14.162Z,85.24
2018-02-17T02:46:42.260Z,85.01
2018-02-17T02:49:10.382Z,85.16
2018-02-17T02:51:38.510Z,85.71
2018-02-17T02:54:06.622Z,85.67
2018-02-17T02:56:34.732Z,85.42
2018-02-17T02:59:02.839Z,85.31
2018-02-17T03:01:31.185Z,85.18
2018-02-17T03:03:59.294Z,85.65
2018-02-17T03:06:27.410Z,85.09
2018-02-17T03:08:55.522Z,85.47
2018-02-17T03:11:23.645Z,85.79
2018-02-17T03:13:51.759Z,85.65
2018-02-17T03:16:19.890Z,85.72
2018-02-17T03:18:48.005Z,85.74
2018-02-17T03:21:16.114Z,86.21
2018-02-17T03:23:44.223Z,86.16
2018-02-17T03:26:12.336Z,86.34
2018-02-17T03:28:40.441Z,86.66
2018-02-17T03:31:08.574Z,86.60
2018-02-17T03:33:36.692Z,86.75
2018-02-17T03:36:04.817Z,86.52
2018-02-17T03:38:32.914Z,86.67
2018-02-17T03:41:01.006Z,86.67
2018-02-17T03:43:29.114Z,86.43
2018-02-17T03:45:57.228Z,86.50
2018-02-17T03:48:25.450Z,86.44
2018-02-17T03:50:53.552Z,86.39
2018-02-17T03:53:21.664Z,86.53
2018-02-17T03:55:49.787Z,86.34
2018-02-17T03:58:17.899Z,86.21
2018-02-17T04:00:46.080Z,86.15
2018-02-17T04:03:14.186Z,86.21
2018-02-17T04:05:42.292Z,86.40
2018-02-17T04:08:10.399Z,86.63
2018-02-17T04:10:38.534Z,86.27
2018-02-17T04:13:06.646Z,87.10
2018-02-17T04:15:34.761Z,87.15
2018-02-17T04:18:02.865Z,86.73
2018-02-17T04:20:30.977Z,87.04
2018-02-17T04:22:59.153Z,86.90
2018-02-17T04:25:27.250Z,87.26
2018-02-17T04:27:55.357Z,87.06
2018-02-17T04:30:23.472Z,86.70
2018-02-17T04:32:51.582Z,86.43
2018-02-17T04:35:19.687Z,86.59
2018-02-17T04:37:47.799Z,85.95
2018-02-17T04:40:16.413Z,86.18
2018-02-17T04:42:58.270Z,86.29
2018-02-17T04:45:41.268Z,86.41
2018-02-17T04:48:20.086Z,85.86
2018-02-17T04:51:01.083Z,85.96
2018-02-17T04:53:34.183Z,86.24
2018-02-17T04:59:15.429Z,86.59
2018-02-17T05:01:43.548Z,86.82
2018-02-17T05:04:12.576Z,86.93
2018-02-17T05:06:51.497Z,86.86
2018-02-17T05:09:20.398Z,86.76
2018-02-17T05:11:48.513Z,86.66
2018-02-17T05:14:19.169Z,86.60
2018-02-17T05:16:50.149Z,86.39
2018-02-17T05:19:18.253Z,86.29
2018-02-17T05:21:46.401Z,86.42
2018-02-17T05:24:14.516Z,86.18
2018-02-17T05:26:42.625Z,86.10
2018-02-17T05:29:15.171Z,86.39
2018-02-17T05:31:43.302Z,86.43
2018-02-17T05:34:14.919Z,86.91
2018-02-17T05:36:44.443Z,86.41
2018-02-17T05:39:12.628Z,86.61
2018-02-17T05:41:45.166Z,86.61
2018-02-17T05:44:16.790Z,86.60
2018-02-17T05:46:47.547Z,86.65
2018-02-17T05:49:16.055Z,86.84
2018-02-17T05:51:44.159Z,86.50
2018-02-17T05:54:12.313Z,86.68
2018-02-17T05:56:40.413Z,86.11
2018-02-17T05:59:08.551Z,86.21
2018-02-17T06:01:36.672Z,86.46
2018-02-17T06:04:04.787Z,86.59
2018-02-17T06:06:32.909Z,86.41
2018-02-17T06:09:01.904Z,86.17
2018-02-17T06:11:30.039Z,85.92
2018-02-17T06:13:58.142Z,86.31
2018-02-17T06:16:26.278Z,86.38
2018-02-17T06:18:54.391Z,85.84
2018-02-17T06:21:22.580Z,86.16
2018-02-17T06:23:50.689Z,86.48
2018-02-17T06:26:18.805Z,86.61
2018-02-17T06:28:46.925Z,86.34
2018-02-17T06:31:15.027Z,86.79
2018-02-17T06:33:43.166Z,86.46
2018-02-17T06:36:11.275Z,86.52
2018-02-17T06:38:39.422Z,86.19
2018-02-17T06:41:07.536Z,86.53
2018-02-17T06:43:35.677Z,86.53
2018-02-17T06:46:03.789Z,86.39
2018-02-17T06:48:31.901Z,86.04
2018-02-17T06:51:00.080Z,85.84
2018-02-17T06:53:28.218Z,85.69
2018-02-17T06:55:56.336Z,85.85
2018-02-17T06:58:24.553Z,85.83
2018-02-17T07:00:52.682Z,85.60
2018-02-17T07:03:20.807Z,85.65
2018-02-17T07:05:48.921Z,85.86
2018-02-17T07:08:17.029Z,85.96
2018-02-17T07:10:45.157Z,85.40
2018-02-17T07:13:16.344Z,85.49
2018-02-17T07:15:44.470Z,85.72
2018-02-17T07:18:12.601Z,85.48
2018-02-17T07:20:40.734Z,85.39
2018-02-17T07:23:08.835Z,85.32
2018-02-17T07:25:36.978Z,85.34
2018-02-17T07:28:05.117Z,85.28
2018-02-17T07:30:33.245Z,84.94
2018-02-17T07:33:01.370Z,85.10
2018-02-17T07:35:29.501Z,85.18
2018-02-17T07:37:57.604Z,85.40
2018-02-17T07:40:25.724Z,85.21
2018-02-17T07:42:53.962Z,84.53
2018-02-17T07:45:22.080Z,84.43
2018-02-17T07:47:50.201Z,84.69
2018-02-17T07:50:18.314Z,84.62
2018-02-17T07:52:46.440Z,84.91
2018-02-17T07:55:14.566Z,84.81
2018-02-17T07:57:42.698Z,84.03
2018-02-17T08:00:10.811Z,84.33
2018-02-17T08:02:38.978Z,84.22
2018-02-17T08:05:07.058Z,84.16
2018-02-17T08:07:35.284Z,84.54
2018-02-17T08:10:03.415Z,83.82
2018-02-17T08:12:31.524Z,83.78
2018-02-17T08:14:59.641Z,83.75
2018-02-17T08:17:27.773Z,83.33
2018-02-17T08:19:55.886Z,83.40
2018-02-17T08:22:24.014Z,82.50
2018-02-17T08:24:52.141Z,82.87
2018-02-17T08:27:20.259Z,82.74
2018-02-17T08:29:48.388Z,82.66
2018-02-17T08:32:16.514Z,82.88
2018-02-17T08:34:44.695Z,82.99
2018-02-17T08:37:12.801Z,82.57
2018-02-17T08:39:40.936Z,82.27
2018-02-17T08:42:09.640Z,81.91
2018-02-17T08:44:37.753Z,81.39
2018-02-17T08:47:05.896Z,81.74
2018-02-17T08:49:34.004Z,81.51
2018-02-17T08:52:02.135Z,80.95
2018-02-17T08:54:30.261Z,80.85
2018-02-17T08:56:58.374Z,80.84
2018-02-17T08:59:26.572Z,80.60
2018-02-17T09:01:54.703Z,80.33
2018-02-17T09:04:22.940Z,80.19
2018-02-17T09:06:51.032Z,79.98
2018-02-17T09:09:19.186Z,80.03
2018-02-17T09:11:47.330Z,79.62
2018-02-17T09:14:15.445Z,79.41
2018-02-17T09:16:43.555Z,78.82
2018-02-17T09:19:11.701Z,78.59
2018-02-17T09:21:39.848Z,79.20
2018-02-17T09:24:07.968Z,78.04
2018-02-17T09:26:36.108Z,78.63
2018-02-17T09:29:04.221Z,78.22
2018-02-17T09:31:32.340Z,78.14
2018-02-17T09:34:00.445Z,78.11
2018-02-17T09:36:28.566Z,78.25
2018-02-17T09:38:56.803Z,77.57
2018-02-17T09:41:25.466Z,77.22
2018-02-17T09:43:54.638Z,77.72
2018-02-17T09:46:22.759Z,77.08
2018-02-17T09:48:50.854Z,77.26
2018-02-17T09:51:18.971Z,77.06
2018-02-17T09:53:47.100Z,76.52
2018-02-17T09:56:15.236Z,75.52
2018-02-17T09:58:43.356Z,75.70
2018-02-17T10:01:11.505Z,76.20
2018-02-17T10:03:39.618Z,75.32
2018-02-17T10:06:07.792Z,74.59
2018-02-17T10:08:35.918Z,75.41
2018-02-17T10:11:04.116Z,73.76
2018-02-17T10:13:32.235Z,74.25
2018-02-17T10:16:00.356Z,73.83
2018-02-17T10:18:28.501Z,73.04
2018-02-17T10:20:56.599Z,73.22
2018-02-17T10:23:24.726Z,72.59
2018-02-17T10:25:52.861Z,72.50
2018-02-17T10:28:21.176Z,72.09
2018-02-17T10:30:49.291Z,71.44
2018-02-17T10:33:17.437Z,70.15
2018-02-17T10:35:45.556Z,69.56
2018-02-17T10:38:13.692Z,69.74
2018-02-17T10:40:41.792Z,69.10
2018-02-17T10:43:09.958Z,68.87
2018-02-17T10:45:38.080Z,69.31
2018-02-17T10:48:06.199Z,67.96
2018-02-17T10:50:34.358Z,65.60
2018-02-17T10:53:02.423Z,66.30
2018-02-17T10:55:36.130Z,67.32
2018-02-17T10:58:04.253Z,64.85
2018-02-17T11:00:32.443Z,65.18
2018-02-17T11:03:00.589Z,64.86
2018-02-17T11:05:28.716Z,63.65
2018-02-17T11:07:56.846Z,62.73
2018-02-17T11:10:24.961Z,64.14
2018-02-17T11:12:53.096Z,62.03
2018-02-17T11:15:21.224Z,62.48
2018-02-17T11:17:49.363Z,62.64
2018-02-17T11:20:17.637Z,62.76
2018-02-17T11:22:45.765Z,62.40
2018-02-17T11:25:13.899Z,62.30
2018-02-17T11:27:42.014Z,62.58
2018-02-17T11:30:10.140Z,61.99
2018-02-17T11:32:38.273Z,62.20
2018-02-17T11:35:06.397Z,61.48
2018-02-17T11:37:34.534Z,61.10
2018-02-17T11:40:02.659Z,61.25
2018-02-17T11:42:30.785Z,60.84
2018-02-17T11:44:58.930Z,61.86
2018-02-17T11:47:27.115Z,62.16
2018-02-17T11:49:55.260Z,60.82
2018-02-17T11:52:23.367Z,58.80
2018-02-17T11:54:51.495Z,57.68
2018-02-17T11:57:19.640Z,59.21
2018-02-17T11:59:47.780Z,57.45
2018-02-17T12:02:15.913Z,56.82
2018-02-17T12:04:44.038Z,56.49
2018-02-17T12:07:12.170Z,57.00
2018-02-17T12:09:40.308Z,55.95
2018-02-17T12:12:08.440Z,54.95
2018-02-17T12:14:36.687Z,54.13
2018-02-17T12:17:04.906Z,55.02
2018-02-17T12:19:33.047Z,54.89
2018-02-17T12:22:01.606Z,55.33
2018-02-17T12:24:30.133Z,56.88
2018-02-17T12:26:58.389Z,54.29
2018-02-17T12:29:26.563Z,69.34
2018-02-17T12:31:54.685Z,53.32
2018-02-17T12:34:22.851Z,54.00
2018-02-17T12:36:50.948Z,54.57
2018-02-17T12:39:19.065Z,55.44
2018-02-17T12:41:47.200Z,54.69
2018-02-17T12:44:15.330Z,55.01
2018-02-17T12:46:43.474Z,69.79
2018-02-17T12:49:11.604Z,54.62
2018-02-17T12:51:39.715Z,54.49
2018-02-17T12:54:07.832Z,53.89
2018-02-17T12:56:35.984Z,54.47
2018-02-17T12:59:04.097Z,54.84
2018-02-17T13:01:32.237Z,56.90
2018-02-17T13:04:00.350Z,55.65
2018-02-17T13:06:29.368Z,56.03
2018-02-17T13:08:57.585Z,55.11
2018-02-17T13:11:25.691Z,55.89
2018-02-17T13:13:53.825Z,56.12
2018-02-17T13:16:21.939Z,56.44
2018-02-17T13:18:50.089Z,55.22
2018-02-17T13:21:18.223Z,54.83
2018-02-17T13:23:46.335Z,54.05
2018-02-17T13:26:14.541Z,55.13
2018-02-17T13:28:42.685Z,55.00
2018-02-17T13:31:10.810Z,54.91
2018-02-17T13:33:38.949Z,55.35
2018-02-17T13:36:07.083Z,54.48
2018-02-17T13:38:35.203Z,55.84
2018-02-17T13:41:03.332Z,56.51
2018-02-17T13:43:31.450Z,56.21
2018-02-17T13:45:59.604Z,54.95
2018-02-17T13:48:27.732Z,55.56
2018-02-17T13:50:55.888Z,55.86
2018-02-17T13:53:24.031Z,55.03
2018-02-17T13:55:52.146Z,55.59
2018-02-17T13:58:20.287Z,54.83
2018-02-17T14:00:48.413Z,54.92
2018-02-17T14:03:16.526Z,54.60
2018-02-17T14:05:44.653Z,56.04
2018-02-17T14:08:12.773Z,55.67
2018-02-17T14:10:40.893Z,54.37
2018-02-17T14:13:09.037Z,55.26
2018-02-17T14:15:37.174Z,55.41
2018-02-17T14:18:05.298Z,55.93
2018-02-17T14:20:33.447Z,55.53
2018-02-17T14:23:01.585Z,56.29
2018-02-17T14:25:29.681Z,55.08
2018-02-17T14:27:57.819Z,55.41
2018-02-17T14:30:25.950Z,54.75
2018-02-17T14:32:54.074Z,55.90
2018-02-17T14:35:22.237Z,55.56
2018-02-17T14:37:50.728Z,55.25
2018-02-17T14:40:18.907Z,57.07
2018-02-17T14:42:47.068Z,56.45
2018-02-17T14:45:15.208Z,55.39
2018-02-17T14:47:43.323Z,56.25
2018-02-17T14:50:11.445Z,55.19
2018-02-17T14:52:39.569Z,55.34
2018-02-17T14:55:07.714Z,56.24
2018-02-17T14:57:35.844Z,55.95
2018-02-17T15:00:04.092Z,55.02
2018-02-17T15:02:32.223Z,55.44
2018-02-17T15:05:00.340Z,56.87
2018-02-17T15:07:28.460Z,56.68
2018-02-17T15:09:56.646Z,56.79
2018-02-17T15:12:24.780Z,57.73
2018-02-17T15:14:52.899Z,57.20
2018-02-17T15:17:21.004Z,56.48
2018-02-17T15:19:49.159Z,56.86
2018-02-17T15:22:17.291Z,57.22
2018-02-17T15:24:45.433Z,57.36
2018-02-17T15:27:13.538Z,57.56
2018-02-17T15:29:41.696Z,56.97
2018-02-17T15:32:09.802Z,57.59
2018-02-17T15:34:37.941Z,57.81
2018-02-17T15:37:06.043Z,57.36
2018-02-17T15:39:34.182Z,56.66
2018-02-17T15:42:02.287Z,56.85
2018-02-17T15:44:30.423Z,57.88
2018-02-17T15:46:58.552Z,57.55
2018-02-17T15:49:27.397Z,56.86
2018-02-17T15:51:55.496Z,56.60
2018-02-17T15:54:23.615Z,57.12
2018-02-17T15:56:51.724Z,57.81
2018-02-17T15:59:19.852Z,58.54
2018-02-17T16:01:47.985Z,57.43
2018-02-17T16:04:16.122Z,57.77
2018-02-17T16:06:44.216Z,57.75
2018-02-17T16:09:12.361Z,57.74
2018-02-17T16:11:40.500Z,58.31
2018-02-17T16:14:08.621Z,59.42
2018-02-17T16:16:36.816Z,58.26
2018-02-17T16:19:04.934Z,58.31
2018-02-17T16:21:33.053Z,58.69
2018-02-17T16:24:01.195Z,59.38
2018-02-17T16:26:29.313Z,58.23
2018-02-17T16:28:57.425Z,60.14
2018-02-17T16:31:25.576Z,60.47
2018-02-17T16:33:53.701Z,59.02
2018-02-17T16:36:21.829Z,59.66
2018-02-17T16:38:49.954Z,66.27
2018-02-17T16:41:18.081Z,60.22
2018-02-17T16:43:46.233Z,60.99
2018-02-17T16:46:14.357Z,59.67
2018-02-17T16:48:42.464Z,60.84
2018-02-17T16:51:10.593Z,62.36
2018-02-17T16:53:38.714Z,62.86
2018-02-17T16:56:06.831Z,63.19
2018-02-17T16:58:38.488Z,63.79
2018-02-17T17:01:06.602Z,63.94
2018-02-17T17:03:34.735Z,64.61
2018-02-17T17:06:02.835Z,65.33
2018-02-17T17:08:30.974Z,66.23
2018-02-17T17:10:59.089Z,66.46
2018-02-17T17:13:27.221Z,66.88
2018-02-17T17:15:55.337Z,66.64
2018-02-17T17:18:23.709Z,66.64
2018-02-17T17:20:51.868Z,67.05
2018-02-17T17:23:20.038Z,67.04
2018-02-17T17:25:48.179Z,66.98
2018-02-17T17:28:16.319Z,66.97
2018-02-17T17:30:44.407Z,67.68
2018-02-17T17:33:12.558Z,67.22
2018-02-17T17:35:40.678Z,67.00
2018-02-17T17:38:08.794Z,67.61
2018-02-17T17:40:36.919Z,67.54
2018-02-17T17:43:05.049Z,67.67
2018-02-17T17:45:33.185Z,68.19
2018-02-17T17:48:01.350Z,68.66
2018-02-17T17:50:29.412Z,68.95
2018-02-17T17:52:57.522Z,69.12
2018-02-17T17:55:25.653Z,69.02
2018-02-17T17:57:53.758Z,69.79
2018-02-17T18:00:21.892Z,69.62
2018-02-17T18:02:50.002Z,69.91
2018-02-17T18:05:18.128Z,69.95
2018-02-17T18:07:46.236Z,70.43
2018-02-17T18:10:14.363Z,70.41
2018-02-17T18:12:42.464Z,70.57
2018-02-17T18:15:10.667Z,70.69
2018-02-17T18:17:38.784Z,71.06
2018-02-17T18:20:06.936Z,71.10
2018-02-17T18:22:35.067Z,71.76
2018-02-17T18:25:03.242Z,71.97
2018-02-17T18:27:31.373Z,73.13
2018-02-17T18:30:00.104Z,72.02
2018-02-17T18:32:28.221Z,72.24
2018-02-17T18:34:56.483Z,72.59
2018-02-17T18:37:28.037Z,72.69
2018-02-17T18:39:56.141Z,73.00
2018-02-17T18:42:24.256Z,73.21
2018-02-17T18:44:52.377Z,73.10
2018-02-17T18:47:20.506Z,73.34
2018-02-17T18:49:48.631Z,73.51
2018-02-17T18:52:16.780Z,74.12
2018-02-17T18:54:44.905Z,74.15
2018-02-17T18:57:13.019Z,73.81
2018-02-17T18:59:41.127Z,74.78
2018-02-17T19:02:09.241Z,74.19
2018-02-17T19:04:37.368Z,74.10
2018-02-17T19:07:05.479Z,74.44
2018-02-17T19:09:33.624Z,74.45
2018-02-17T19:12:01.818Z,74.49
2018-02-17T19:14:29.916Z,74.57
2018-02-17T19:16:58.075Z,74.50
2018-02-17T19:19:26.189Z,74.67
2018-02-17T19:21:54.309Z,75.06
2018-02-17T19:24:22.532Z,75.17
2018-02-17T19:26:50.806Z,75.15
2018-02-17T19:29:18.983Z,75.67
2018-02-17T19:31:47.126Z,76.17
2018-02-17T19:34:17.632Z,76.57
2018-02-17T19:36:46.207Z,76.67
2018-02-17T19:39:14.755Z,75.90
2018-02-17T19:41:43.284Z,76.07
2018-02-17T19:44:12.068Z,76.56
2018-02-17T19:46:40.609Z,76.66
2018-02-17T19:49:08.763Z,76.58
2018-02-17T19:51:37.792Z,77.10
2018-02-17T19:54:05.906Z,77.08
2018-02-17T19:56:34.041Z,76.61
2018-02-17T19:59:02.150Z,77.09
2018-02-17T20:01:30.252Z,77.41
2018-02-17T20:03:58.415Z,77.02
2018-02-17T20:06:26.537Z,77.06
2018-02-17T20:08:54.656Z,77.02
2018-02-17T20:11:22.794Z,77.29
2018-02-17T20:13:50.952Z,77.56
2018-02-17T20:16:19.288Z,76.53
2018-02-17T20:18:47.472Z,76.78
2018-02-17T20:21:15.604Z,77.05
2018-02-17T20:23:43.724Z,76.78
2018-02-17T20:26:11.860Z,76.76
2018-02-17T20:28:39.964Z,76.93
2018-02-17T20:31:08.093Z,77.03
2018-02-17T20:33:36.209Z,77.37
2018-02-17T20:36:04.354Z,77.67
2018-02-17T20:38:32.465Z,77.90
2018-02-17T20:41:00.597Z,77.83
2018-02-17T20:43:28.756Z,78.11
2018-02-17T20:45:56.844Z,78.05
2018-02-17T20:48:25.690Z,78.17
2018-02-17T20:50:53.841Z,78.40
2018-02-17T20:53:21.906Z,78.53
2018-02-17T20:55:50.017Z,79.05
2018-02-17T20:58:18.250Z,79.12
2018-02-17T21:00:46.328Z,78.98
2018-02-17T21:03:14.475Z,78.96
2018-02-17T21:05:42.610Z,79.44
2018-02-17T21:08:10.736Z,79.06
2018-02-17T21:10:38.821Z,78.74
2018-02-17T21:13:06.954Z,78.98
2018-02-17T21:15:35.243Z,79.18
2018-02-17T21:18:03.404Z,78.97
2018-02-17T21:20:31.525Z,79.38
2018-02-17T21:22:59.650Z,79.08
2018-02-17T21:25:27.780Z,79.58
2018-02-17T21:27:55.896Z,79.50
2018-02-17T21:30:24.012Z,79.94
2018-02-17T21:32:52.245Z,79.63
2018-02-17T21:35:20.369Z,80.47
2018-02-17T21:37:48.491Z,79.70
2018-02-17T21:40:16.605Z,80.27
2018-02-17T21:42:44.729Z,80.55
2018-02-17T21:45:12.857Z,80.83
2018-02-17T21:47:40.967Z,80.27
2018-02-17T21:50:09.084Z,80.15
2018-02-17T21:52:37.197Z,80.78
2018-02-17T21:55:05.344Z,81.09
2018-02-17T21:57:33.460Z,80.88
2018-02-17T22:00:01.655Z,81.02
2018-02-17T22:02:29.717Z,81.07
2018-02-17T22:04:57.886Z,81.23
2018-02-17T22:07:25.998Z,81.47
2018-02-17T22:09:54.125Z,81.30
2018-02-17T22:12:22.243Z,81.17
2018-02-17T22:14:50.380Z,81.84
2018-02-17T22:17:18.522Z,80.87
2018-02-17T22:19:46.641Z,81.10
2018-02-17T22:22:14.760Z,80.73
2018-02-17T22:24:42.889Z,81.18
2018-02-17T22:27:11.014Z,81.09
2018-02-17T22:29:39.155Z,81.32
2018-02-17T22:32:07.263Z,81.73
2018-02-17T22:34:35.392Z,81.74
2018-02-17T22:37:03.520Z,81.22
2018-02-17T22:39:31.639Z,81.59
2018-02-17T22:41:59.789Z,81.18
2018-02-17T22:44:27.898Z,81.51
2018-02-17T22:46:56.038Z,81.92
2018-02-17T22:49:24.154Z,81.66
2018-02-17T22:51:52.269Z,81.71
2018-02-17T22:54:20.398Z,81.70
2018-02-17T22:56:50.444Z,81.40
2018-02-17T22:59:18.625Z,81.29
2018-02-17T23:01:46.731Z,81.00
2018-02-17T23:04:14.858Z,81.16
2018-02-17T23:06:42.996Z,81.44
2018-02-17T23:09:11.119Z,81.51
2018-02-17T23:11:39.313Z,81.78
2018-02-17T23:14:07.440Z,81.88
2018-02-17T23:16:35.561Z,81.81
2018-02-17T23:19:03.721Z,81.13
2018-02-17T23:21:31.812Z,81.52
2018-02-17T23:23:59.912Z,81.30
2018-02-17T23:26:28.035Z,81.42
2018-02-17T23:28:56.154Z,81.68
2018-02-17T23:31:24.284Z,81.69
2018-02-17T23:33:52.399Z,81.68
2018-02-17T23:36:20.507Z,81.47
2018-02-17T23:38:48.615Z,81.01
2018-02-17T23:41:16.760Z,81.08
2018-02-17T23:43:44.871Z,81.05
2018-02-17T23:46:13.008Z,80.90
2018-02-17T23:48:41.126Z,81.73
2018-02-17T23:51:09.239Z,81.67
2018-02-17T23:53:37.378Z,81.23
2018-02-17T23:56:05.500Z,81.28
2018-02-17T23:58:33.608Z,81.85
